AWW46ST EKCH-EGFF
Flight info
| Callsign | AWW46ST |
|---|---|
| Flight time | N/A |
| Altitude | 34000 |
| Route | LANGO M611 ALASA DCT MAXUN DCT VALAM DCT NOGRO M40 SABER L980 LAM L179 SAWPE Q63 CONKO |
| Aircraft | A320/M-SDE3FGHIRWY/LB1 |
Departure
| Time | 2026-04-30 13:52 |
|---|---|
| Airport | Copenhagen Kastrup Airport (EKCH) |
Arrival
| Time | N/A |
|---|---|
| Airport | Cardiff International Airport (EGFF) |
| Time | Latitude | Longitude | Altitude | Speed | Heading |
|---|---|---|---|---|---|
| 2026-04-30 13:31 | 55.62703 | 12.64166 | 27 ft | 0 kts | 32° |
| 2026-04-30 13:42 | 55.62693 | 12.64155 | 26 ft | 3 kts | 35° |
| 2026-04-30 13:43 | 55.62677 | 12.64133 | 24 ft | 3 kts | 43° |
| 2026-04-30 13:43 | 55.62663 | 12.64107 | 24 ft | 3 kts | 57° |
| 2026-04-30 13:43 | 55.62655 | 12.64077 | 24 ft | 3 kts | 85° |
| 2026-04-30 13:43 | 55.62656 | 12.64053 | 27 ft | 1 kts | 123° |
| 2026-04-30 13:44 | 55.62659 | 12.64045 | 28 ft | 0 kts | 123° |
| 2026-04-30 13:46 | 55.62641 | 12.64093 | 24 ft | 3 kts | 123° |
| 2026-04-30 13:46 | 55.62634 | 12.64112 | 25 ft | 0 kts | 123° |
| 2026-04-30 13:46 | 55.62634 | 12.64113 | 25 ft | 1 kts | 123° |
| 2026-04-30 13:47 | 55.62572 | 12.64280 | 24 ft | 27 kts | 123° |
| 2026-04-30 13:47 | 55.62502 | 12.64474 | 24 ft | 1 kts | 122° |
| 2026-04-30 13:47 | 55.62441 | 12.64462 | 24 ft | 10 kts | 204° |
| 2026-04-30 13:47 | 55.62343 | 12.64424 | 23 ft | 19 kts | 191° |
| 2026-04-30 13:48 | 55.62185 | 12.64414 | 22 ft | 28 kts | 170° |
| 2026-04-30 13:48 | 55.62012 | 12.64471 | 24 ft | 28 kts | 169° |
| 2026-04-30 13:48 | 55.61807 | 12.64541 | 24 ft | 27 kts | 169° |
| 2026-04-30 13:48 | 55.61604 | 12.64484 | 26 ft | 34 kts | 212° |
| 2026-04-30 13:49 | 55.61398 | 12.64243 | 24 ft | 36 kts | 213° |
| 2026-04-30 13:49 | 55.61183 | 12.63996 | 24 ft | 37 kts | 213° |
| 2026-04-30 13:49 | 55.60964 | 12.63740 | 25 ft | 38 kts | 213° |
| 2026-04-30 13:49 | 55.60739 | 12.63479 | 24 ft | 39 kts | 212° |
| 2026-04-30 13:50 | 55.60574 | 12.63267 | 24 ft | 20 kts | 221° |
| 2026-04-30 13:50 | 55.60382 | 12.63200 | 24 ft | 14 kts | 132° |
| 2026-04-30 13:50 | 55.60341 | 12.63317 | 28 ft | 10 kts | 89° |
| 2026-04-30 13:51 | 55.60365 | 12.63385 | 29 ft | 1 kts | 40° |
| 2026-04-30 13:51 | 55.60471 | 12.63546 | 24 ft | 55 kts | 40° |
| 2026-04-30 13:51 | 55.60933 | 12.64262 | 26 ft | 119 kts | 41° |
| 2026-04-30 13:51 | 55.61677 | 12.65416 | 141 ft | 155 kts | 40° |
| 2026-04-30 13:52 | 55.62497 | 12.66610 | 854 ft | 153 kts | 35° |
| 2026-04-30 13:52 | 55.63287 | 12.67831 | 1492 ft | 154 kts | 37° |
| 2026-04-30 13:52 | 55.64106 | 12.69115 | 1982 ft | 165 kts | 38° |
| 2026-04-30 13:52 | 55.65027 | 12.70555 | 2308 ft | 188 kts | 38° |
| 2026-04-30 13:53 | 55.66087 | 12.72165 | 2625 ft | 213 kts | 36° |
| 2026-04-30 13:53 | 55.67284 | 12.73943 | 3047 ft | 237 kts | 36° |
| 2026-04-30 13:53 | 55.68571 | 12.75945 | 3652 ft | 254 kts | 45° |
| 2026-04-30 13:53 | 55.69490 | 12.78675 | 4527 ft | 264 kts | 68° |
| 2026-04-30 13:54 | 55.69741 | 12.81927 | 5469 ft | 272 kts | 91° |
| 2026-04-30 13:54 | 55.69228 | 12.85169 | 6411 ft | 279 kts | 115° |
| 2026-04-30 13:54 | 55.67979 | 12.87833 | 7318 ft | 287 kts | 140° |
| 2026-04-30 13:54 | 55.66175 | 12.89427 | 8169 ft | 294 kts | 158° |
| 2026-04-30 13:55 | 55.64224 | 12.90596 | 9028 ft | 299 kts | 164° |
| 2026-04-30 13:55 | 55.62141 | 12.91007 | 9880 ft | 306 kts | 180° |
| 2026-04-30 13:55 | 55.60030 | 12.90371 | 10642 ft | 314 kts | 196° |
| 2026-04-30 13:55 | 55.57992 | 12.88620 | 10895 ft | 339 kts | 216° |
| 2026-04-30 13:56 | 55.56232 | 12.85706 | 11303 ft | 354 kts | 227° |
| 2026-04-30 13:56 | 55.54528 | 12.82515 | 11933 ft | 361 kts | 228° |
| 2026-04-30 13:56 | 55.53006 | 12.78958 | 12603 ft | 366 kts | 240° |
| 2026-04-30 13:56 | 55.51910 | 12.74893 | 13279 ft | 369 kts | 253° |
| 2026-04-30 13:57 | 55.51320 | 12.70477 | 13942 ft | 372 kts | 266° |
| 2026-04-30 13:57 | 55.51139 | 12.65907 | 14572 ft | 375 kts | 270° |
| 2026-04-30 13:57 | 55.50983 | 12.61288 | 15207 ft | 379 kts | 270° |
| 2026-04-30 13:57 | 55.50817 | 12.56628 | 15851 ft | 382 kts | 270° |
| 2026-04-30 13:58 | 55.50641 | 12.51927 | 16496 ft | 386 kts | 270° |
| 2026-04-30 13:58 | 55.50271 | 12.42407 | 17760 ft | 392 kts | 270° |
| 2026-04-30 13:58 | 55.50079 | 12.37588 | 18389 ft | 396 kts | 270° |
| 2026-04-30 13:59 | 55.49881 | 12.32733 | 18941 ft | 398 kts | 270° |
| 2026-04-30 13:59 | 55.49497 | 12.27871 | 19200 ft | 404 kts | 259° |
| 2026-04-30 13:59 | 55.48605 | 12.23159 | 19799 ft | 408 kts | 248° |
| 2026-04-30 13:59 | 55.47230 | 12.18751 | 20380 ft | 413 kts | 237° |
| 2026-04-30 14:00 | 55.45521 | 12.14673 | 20954 ft | 415 kts | 234° |
| 2026-04-30 14:00 | 55.42027 | 12.06494 | 22099 ft | 420 kts | 234° |
| 2026-04-30 14:00 | 55.40264 | 12.02379 | 22655 ft | 423 kts | 234° |
| 2026-04-30 14:01 | 55.38486 | 11.98242 | 23228 ft | 425 kts | 235° |
| 2026-04-30 14:01 | 55.36697 | 11.94090 | 23768 ft | 427 kts | 235° |
| 2026-04-30 14:01 | 55.34897 | 11.89915 | 24259 ft | 430 kts | 235° |
| 2026-04-30 14:01 | 55.33087 | 11.85720 | 24712 ft | 432 kts | 235° |
| 2026-04-30 14:02 | 55.31267 | 11.81511 | 25139 ft | 434 kts | 235° |
| 2026-04-30 14:02 | 55.29462 | 11.77336 | 25563 ft | 436 kts | 235° |
| 2026-04-30 14:02 | 55.27624 | 11.73099 | 25981 ft | 438 kts | 235° |
| 2026-04-30 14:02 | 55.25773 | 11.68848 | 26389 ft | 440 kts | 235° |
| 2026-04-30 14:03 | 55.23959 | 11.64520 | 26792 ft | 441 kts | 237° |
| 2026-04-30 14:03 | 55.22245 | 11.60069 | 27185 ft | 441 kts | 239° |
| 2026-04-30 14:03 | 55.20594 | 11.55531 | 27572 ft | 443 kts | 240° |
| 2026-04-30 14:03 | 55.18966 | 11.50944 | 27952 ft | 444 kts | 240° |
| 2026-04-30 14:04 | 55.17331 | 11.46340 | 28332 ft | 446 kts | 240° |
| 2026-04-30 14:04 | 55.15671 | 11.41736 | 28695 ft | 449 kts | 240° |
| 2026-04-30 14:04 | 55.13982 | 11.37132 | 29043 ft | 451 kts | 239° |
| 2026-04-30 14:04 | 55.12273 | 11.32533 | 29401 ft | 453 kts | 239° |
| 2026-04-30 14:05 | 55.10543 | 11.27922 | 29743 ft | 454 kts | 239° |
| 2026-04-30 14:05 | 55.08804 | 11.23307 | 30079 ft | 456 kts | 239° |
| 2026-04-30 14:05 | 55.07055 | 11.18672 | 30401 ft | 458 kts | 239° |
| 2026-04-30 14:05 | 55.05303 | 11.14027 | 30683 ft | 460 kts | 239° |
| 2026-04-30 14:06 | 55.03543 | 11.09355 | 30943 ft | 461 kts | 239° |
| 2026-04-30 14:06 | 55.00004 | 10.99985 | 31415 ft | 465 kts | 239° |
| 2026-04-30 14:07 | 54.96440 | 10.90561 | 31967 ft | 465 kts | 240° |
| 2026-04-30 14:07 | 54.94902 | 10.85653 | 32340 ft | 460 kts | 248° |
| 2026-04-30 14:07 | 54.93798 | 10.80467 | 32691 ft | 455 kts | 257° |
| 2026-04-30 14:08 | 54.92215 | 10.69850 | 33384 ft | 452 kts | 258° |
| 2026-04-30 14:08 | 54.91420 | 10.64569 | 33726 ft | 451 kts | 258° |
| 2026-04-30 14:08 | 54.89818 | 10.54049 | 34402 ft | 450 kts | 258° |
| 2026-04-30 14:09 | 54.88238 | 10.43685 | 34478 ft | 437 kts | 258° |
| 2026-04-30 14:10 | 54.85903 | 10.28438 | 34483 ft | 434 kts | 257° |
| 2026-04-30 14:10 | 54.84334 | 10.18334 | 34479 ft | 434 kts | 257° |
| 2026-04-30 14:11 | 54.82751 | 10.08213 | 34479 ft | 436 kts | 257° |
| 2026-04-30 14:11 | 54.81090 | 9.98103 | 34474 ft | 437 kts | 251° |
| 2026-04-30 14:12 | 54.78219 | 9.88782 | 34474 ft | 440 kts | 240° |
| 2026-04-30 14:12 | 54.74979 | 9.79780 | 34472 ft | 441 kts | 240° |
| 2026-04-30 14:13 | 54.71737 | 9.70779 | 34467 ft | 440 kts | 240° |
| 2026-04-30 14:13 | 54.68496 | 9.61800 | 34476 ft | 440 kts | 240° |
| 2026-04-30 14:14 | 54.65248 | 9.52844 | 34488 ft | 440 kts | 240° |
| 2026-04-30 14:14 | 54.61991 | 9.43899 | 34487 ft | 440 kts | 239° |
| 2026-04-30 14:15 | 54.58724 | 9.34984 | 34474 ft | 440 kts | 239° |
| 2026-04-30 14:15 | 54.55446 | 9.26075 | 34481 ft | 440 kts | 239° |
| 2026-04-30 14:16 | 54.52192 | 9.17244 | 34480 ft | 440 kts | 239° |
| 2026-04-30 14:16 | 54.48904 | 9.08369 | 34477 ft | 439 kts | 239° |
| 2026-04-30 14:17 | 54.45617 | 8.99524 | 34498 ft | 439 kts | 239° |
| 2026-04-30 14:17 | 54.42339 | 8.90685 | 34498 ft | 438 kts | 239° |
| 2026-04-30 14:18 | 54.39058 | 8.81870 | 34483 ft | 438 kts | 239° |
| 2026-04-30 14:18 | 54.34103 | 8.68698 | 34486 ft | 438 kts | 238° |
| 2026-04-30 14:19 | 54.29140 | 8.55555 | 34484 ft | 438 kts | 238° |
| 2026-04-30 14:20 | 54.25832 | 8.46807 | 34485 ft | 437 kts | 238° |
| 2026-04-30 14:20 | 54.20856 | 8.33740 | 34489 ft | 437 kts | 238° |
| 2026-04-30 14:21 | 54.17535 | 8.25051 | 34477 ft | 437 kts | 238° |
| 2026-04-30 14:22 | 54.12533 | 8.12030 | 34478 ft | 438 kts | 238° |
| 2026-04-30 14:22 | 54.07516 | 7.99037 | 34476 ft | 438 kts | 238° |
| 2026-04-30 14:23 | 54.00801 | 7.81755 | 34482 ft | 438 kts | 237° |
| 2026-04-30 14:24 | 53.95748 | 7.68822 | 34460 ft | 438 kts | 237° |
| 2026-04-30 14:25 | 53.88981 | 7.51579 | 34451 ft | 439 kts | 237° |
| 2026-04-30 14:26 | 53.83895 | 7.38727 | 34464 ft | 440 kts | 237° |
| 2026-04-30 14:27 | 53.78776 | 7.25843 | 34438 ft | 440 kts | 236° |
| 2026-04-30 14:27 | 53.75349 | 7.17265 | 34453 ft | 440 kts | 236° |
| 2026-04-30 14:28 | 53.70199 | 7.04430 | 34455 ft | 440 kts | 236° |
| 2026-04-30 14:28 | 53.66764 | 6.95888 | 34453 ft | 440 kts | 236° |
| 2026-04-30 14:29 | 53.60453 | 6.80290 | 34437 ft | 440 kts | 236° |
| 2026-04-30 14:31 | 53.51794 | 6.58980 | 34416 ft | 441 kts | 236° |
| 2026-04-30 14:31 | 53.46731 | 6.46146 | 34425 ft | 442 kts | 236° |
| 2026-04-30 14:32 | 53.41628 | 6.33260 | 34422 ft | 442 kts | 236° |
| 2026-04-30 14:33 | 53.38199 | 6.24708 | 34422 ft | 442 kts | 236° |
| 2026-04-30 14:33 | 53.33041 | 6.11913 | 34415 ft | 442 kts | 236° |
| 2026-04-30 14:34 | 53.29601 | 6.03404 | 34416 ft | 441 kts | 235° |
| 2026-04-30 14:34 | 53.26167 | 5.94910 | 34408 ft | 441 kts | 236° |
| 2026-04-30 14:35 | 53.20995 | 5.82213 | 34408 ft | 441 kts | 235° |
| 2026-04-30 14:36 | 53.17546 | 5.73771 | 34412 ft | 440 kts | 235° |
| 2026-04-30 14:36 | 53.14096 | 5.65340 | 34410 ft | 440 kts | 235° |
| 2026-04-30 14:37 | 53.10644 | 5.56930 | 34389 ft | 440 kts | 235° |
| 2026-04-30 14:37 | 53.07184 | 5.48544 | 34389 ft | 439 kts | 234° |
| 2026-04-30 14:38 | 53.03715 | 5.40201 | 34395 ft | 438 kts | 234° |
| 2026-04-30 14:38 | 53.00135 | 5.32011 | 34379 ft | 438 kts | 231° |
| 2026-04-30 14:39 | 52.96404 | 5.24036 | 34371 ft | 438 kts | 230° |
| 2026-04-30 14:39 | 52.92645 | 5.16099 | 34373 ft | 437 kts | 230° |
| 2026-04-30 14:40 | 52.87063 | 5.04147 | 34379 ft | 437 kts | 230° |
| 2026-04-30 14:40 | 52.83378 | 4.96228 | 34382 ft | 437 kts | 231° |
| 2026-04-30 14:41 | 52.79668 | 4.88298 | 34375 ft | 436 kts | 230° |
| 2026-04-30 14:41 | 52.75947 | 4.80393 | 34373 ft | 435 kts | 230° |
| 2026-04-30 14:42 | 52.72222 | 4.72513 | 34354 ft | 435 kts | 230° |
| 2026-04-30 14:42 | 52.68506 | 4.64643 | 34361 ft | 435 kts | 231° |
| 2026-04-30 14:43 | 52.64781 | 4.56788 | 34344 ft | 435 kts | 230° |
| 2026-04-30 14:43 | 52.61048 | 4.48959 | 34334 ft | 435 kts | 230° |
| 2026-04-30 14:44 | 52.57311 | 4.41147 | 34328 ft | 435 kts | 230° |
| 2026-04-30 14:44 | 52.53575 | 4.33339 | 34325 ft | 434 kts | 230° |
| 2026-04-30 14:45 | 52.49836 | 4.25549 | 34318 ft | 434 kts | 230° |
| 2026-04-30 14:45 | 52.46087 | 4.17782 | 34317 ft | 434 kts | 229° |
| 2026-04-30 14:46 | 52.42360 | 4.10069 | 34312 ft | 434 kts | 230° |
| 2026-04-30 14:46 | 52.38578 | 4.02262 | 34309 ft | 434 kts | 230° |
| 2026-04-30 14:47 | 52.34839 | 3.94590 | 34309 ft | 434 kts | 229° |
| 2026-04-30 14:47 | 52.31078 | 3.86875 | 34309 ft | 433 kts | 229° |
| 2026-04-30 14:48 | 52.27322 | 3.79183 | 34310 ft | 433 kts | 229° |
| 2026-04-30 14:48 | 52.23558 | 3.71518 | 34311 ft | 433 kts | 229° |
| 2026-04-30 14:49 | 52.19782 | 3.63876 | 34303 ft | 433 kts | 229° |
| 2026-04-30 14:49 | 52.16006 | 3.56237 | 34297 ft | 433 kts | 229° |
| 2026-04-30 14:50 | 52.10342 | 3.44794 | 34299 ft | 433 kts | 229° |
| 2026-04-30 14:51 | 52.04670 | 3.33401 | 34302 ft | 432 kts | 228° |
| 2026-04-30 14:52 | 51.99037 | 3.21984 | 34304 ft | 433 kts | 234° |
| 2026-04-30 14:52 | 51.96523 | 3.13082 | 34300 ft | 438 kts | 253° |
| 2026-04-30 14:52 | 51.95976 | 3.08213 | 34284 ft | 440 kts | 263° |
| 2026-04-30 14:53 | 51.95035 | 2.93392 | 34271 ft | 441 kts | 262° |
| 2026-04-30 14:54 | 51.93692 | 2.73646 | 34269 ft | 440 kts | 261° |
| 2026-04-30 14:55 | 51.92686 | 2.58912 | 34269 ft | 440 kts | 261° |
| 2026-04-30 14:56 | 51.91316 | 2.39198 | 34276 ft | 440 kts | 261° |
| 2026-04-30 14:57 | 51.90477 | 2.24366 | 34278 ft | 442 kts | 265° |
| 2026-04-30 14:58 | 51.90186 | 2.04467 | 34279 ft | 442 kts | 266° |
| 2026-04-30 14:58 | 51.89702 | 1.89599 | 34283 ft | 438 kts | 257° |
| 2026-04-30 15:00 | 51.85227 | 1.66286 | 34260 ft | 433 kts | 248° |
| 2026-04-30 15:01 | 51.81445 | 1.47786 | 34252 ft | 433 kts | 248° |
| 2026-04-30 15:01 | 51.78575 | 1.33952 | 34249 ft | 433 kts | 248° |
| 2026-04-30 15:02 | 51.76654 | 1.24721 | 34239 ft | 434 kts | 248° |
| 2026-04-30 15:03 | 51.71818 | 1.01717 | 34233 ft | 434 kts | 247° |
| 2026-04-30 15:04 | 51.70201 | 0.92320 | 34236 ft | 439 kts | 259° |
| 2026-04-30 15:04 | 51.69186 | 0.77617 | 34232 ft | 440 kts | 259° |
| 2026-04-30 15:06 | 51.67424 | 0.53134 | 34228 ft | 440 kts | 259° |
| 2026-04-30 15:07 | 51.65989 | 0.33540 | 34230 ft | 441 kts | 259° |
| 2026-04-30 15:08 | 51.64506 | 0.13968 | 34207 ft | 440 kts | 258° |
| 2026-04-30 15:09 | 51.61879 | -0.10212 | 34287 ft | 438 kts | 255° |
| 2026-04-30 15:10 | 51.60169 | -0.29670 | 34188 ft | 440 kts | 259° |
| 2026-04-30 15:11 | 51.57785 | -0.58911 | 34189 ft | 439 kts | 257° |
| 2026-04-30 15:13 | 51.55663 | -0.83190 | 34187 ft | 438 kts | 257° |
| 2026-04-30 15:14 | 51.53934 | -1.02730 | 32544 ft | 447 kts | 257° |
| 2026-04-30 15:14 | 51.52986 | -1.17392 | 30998 ft | 440 kts | 270° |
| 2026-04-30 15:16 | 51.55665 | -1.41178 | 28557 ft | 422 kts | 276° |
| 2026-04-30 15:17 | 51.57600 | -1.57856 | 26899 ft | 409 kts | 276° |
| 2026-04-30 15:18 | 51.59714 | -1.81444 | 24461 ft | 394 kts | 270° |
| 2026-04-30 15:19 | 51.60460 | -1.93074 | 23146 ft | 391 kts | 271° |